ADDS TAF Board (Experimental) INFO Settings
IDs: Format: Expanded Condensed

KMIA - Miami Intl, FL, US

Issued at 1804 UTC 04 May 2016
Updated at: 1922 UTC 04 May 2016
Time1911Z 04/20Z 04/21Z 04/22Z 04/23Z 05/00Z 05/01Z 05/02Z 05/03Z 05/04Z 05/05Z 05/06Z 05/07Z 05/08Z
Type OBS PRVL PRVL PRVL PRVL PRVL PRVL PRVL PRVL PRVL PRVL PRVL PRVL PRVL
VIS 1.5 >6 >6 >6 >6 >6 >6 >6 >6 >6 >6 >6 >6 >6
CIG 35 50 50 50 50 250 250 250 250 250 250 250 250 --
Cover OVC BKN BKN BKN BKN BKN BKN BKN BKN BKN BKN BKN BKN FEW
FltCat IFR VFR VFR VFR VFR VFR VFR VFR VFR VFR VFR VFR VFR VFR
WX +TSRA BR SHRA VCTS SHRA VCTS SHRA VCTS SHRA VCTS VCTS VCTS VCTS VCTS VCTS VCTS VCTS VCTS --
WDir 220 250 250 250 250 290 290 290 290 290 290 290 290 310
WSpd 9 11 11 11 11 5 5 5 5 5 5 5 5 11
WGst -- -- -- -- -- -- -- -- -- -- -- -- -- --
R08/26
XWnd -7 -3 -3 -3 -3 2 2 2 2 2 2 2 2 8
HWnd -6 -11 -11 -11 -11 -5 -5 -5 -5 -5 -5 -5 -5 -8
R09/27
XWnd -7 -3 -3 -3 -3 2 2 2 2 2 2 2 2 8
HWnd -6 -11 -11 -11 -11 -5 -5 -5 -5 -5 -5 -5 -5 -8
R12/30
XWnd -9 -8 -8 -8 -8 -1 -1 -1 -1 -1 -1 -1 -1 2
HWnd -2 -7 -7 -7 -7 -5 -5 -5 -5 -5 -5 -5 -5 -11

NOTE: TEMPO conditions in [brackets]. Keep in mind TEMPO conditions might be better (lower impact) than prevailing conditions.

Raw TAF
KMIA 041804Z 0418/0518 25011KT P6SM SHRA VCTS SCT025CB BKN050
  TEMPO 0418/0420 VRB06G25KT 2SM TSRA BKN025CB
  FM050000 29005KT P6SM VCTS SCT040CB SCT120 BKN250
  FM050800 31011KT P6SM FEW250
  FM051400 33015KT P6SM FEW040


Raw METAR
KMIA 041911Z 22009KT 1 1/2SM +TSRA BR SCT020CB BKN035 OVC100 22/21 A2984 RMK AO2 OCNL LTGICCG OHD AND AT AP ALQDS TS OHD AND AT AP ALQDS MOV NE P0013 T02170211 $
KMIA 041853Z 15005KT 3SM -TSRA BR SCT020CB BKN035 OVC100 22/21 A2981 RMK AO2 SLP095 FRQ LTGICCG OHD-SW-NW-NE TS OHD-SW-NW-NE MOV NE P0092 T02170211 $
KMIA 041850Z 20003KT 3SM TSRA BR SCT020CB BKN038 OVC100 22/21 A2981 RMK AO2 FRQ LTGICCG OHD AND ALQDS TS OHD AND ALQDS MOV NE P0092 $
KMIA 041841Z 07003KT 3SM TSRA BR BKN020CB OVC040 22/21 A2981 RMK AO2 OCNL LTGICCG OHD AND ALQDS TS OHD AND ALQDS MOV NE P0086 T02170206 $
KMIA 041810Z 03005KT 1SM +TSRA BR BKN020CB OVC048 22/21 A2981 RMK AO2 PRESFR OCNL LTGICCG OHD AND ALQDS TS OHD AND ALQDS MOV NE P0043 T02220211 $
KMIA 041800Z COR VRB05KT 1 1/2SM +TSRA BR BKN025CB BKN035 OVC050 22/21 A2983 RMK AO2 FRQ LTGICCG OHD-W-N-NE TS OHD-W-N-NE MOV NE P0015 T02220211 $
KMIA 041753Z COR 03007KT 5SM +TSRA BR SCT025CB BKN035 OVC050 22/21 A2984 RMK AO2 SLP106 VIS NW 2 FRQ LTGICCG AT AP W-N TS AT AP W-N MOV NE P0039 60075 T02220211 10289 20217 56012 $
KMIA 041653Z 25007KT 4SM +TSRA BR SCT025CB BKN040 OVC080 22/20 A2986 RMK AO2 SLP110 OCNL LTGIC OHD AND ALQDS TS OHD AND ALQDS MOV NE P0021 T02220200 $

METAR Board
Radar Display
Forecast Discussion

TAF Board Legend

Potential Impact
Threat None Slight Moderate High
Visibility (sm) ≥5.1 5.1>X≥3 3>X≥1 <1
Ceiling (100 ft) ≥30.1 30.1>X≥10 10>X≥5 <5
Wind Speed (kt) <10 10≤X<20 20≤X<30 ≥30
Wind Gust (kt) <15 15≤X<25 25≤X<35 ≥35
Weather No Wx Reported VCTS,-TS,-FZRA,SN TS,FZRA +TS,+FZRA,+SN